sensor_id;sensor_type;location;lat;lon;timestamp;P1;durP1;ratioP1;P2;durP2;ratioP2
45198;SDS011;30941;46.422;18.772;2022-11-04T00:01:23;63.97;;;28.75;;
45198;SDS011;30941;46.422;18.772;2022-11-04T00:03:48;56.25;;;27.50;;
45198;SDS011;30941;46.422;18.772;2022-11-04T00:06:14;64.63;;;28.52;;
45198;SDS011;30941;46.422;18.772;2022-11-04T00:08:39;66.20;;;29.33;;
45198;SDS011;30941;46.422;18.772;2022-11-04T00:11:05;67.47;;;29.40;;
45198;SDS011;30941;46.422;18.772;2022-11-04T00:13:49;70.95;;;30.27;;
45198;SDS011;30941;46.422;18.772;2022-11-04T00:16:15;66.43;;;29.52;;
45198;SDS011;30941;46.422;18.772;2022-11-04T00:18:59;63.33;;;29.00;;
45198;SDS011;30941;46.422;18.772;2022-11-04T00:21:25;68.95;;;29.85;;
45198;SDS011;30941;46.422;18.772;2022-11-04T00:24:10;59.22;;;28.15;;
45198;SDS011;30941;46.422;18.772;2022-11-04T00:26:54;68.32;;;28.45;;
45198;SDS011;30941;46.422;18.772;2022-11-04T00:29:38;57.20;;;27.70;;
45198;SDS011;30941;46.422;18.772;2022-11-04T00:32:04;62.15;;;28.95;;
45198;SDS011;30941;46.422;18.772;2022-11-04T00:34:48;56.85;;;27.08;;
45198;SDS011;30941;46.422;18.772;2022-11-04T00:37:13;65.03;;;28.27;;
45198;SDS011;30941;46.422;18.772;2022-11-04T00:39:38;60.55;;;29.05;;
45198;SDS011;30941;46.422;18.772;2022-11-04T00:42:04;62.30;;;29.65;;
45198;SDS011;30941;46.422;18.772;2022-11-04T00:44:29;57.95;;;27.08;;
45198;SDS011;30941;46.422;18.772;2022-11-04T00:46:55;61.00;;;27.00;;
45198;SDS011;30941;46.422;18.772;2022-11-04T00:49:20;54.58;;;26.55;;
45198;SDS011;30941;46.422;18.772;2022-11-04T00:51:45;53.78;;;25.85;;
45198;SDS011;30941;46.422;18.772;2022-11-04T00:54:11;58.95;;;27.45;;
45198;SDS011;30941;46.422;18.772;2022-11-04T00:56:36;54.85;;;26.65;;
45198;SDS011;30941;46.422;18.772;2022-11-04T00:59:02;57.38;;;27.17;;
45198;SDS011;30941;46.422;18.772;2022-11-04T01:01:28;61.58;;;29.00;;
45198;SDS011;30941;46.422;18.772;2022-11-04T01:03:54;63.42;;;28.00;;
45198;SDS011;30941;46.422;18.772;2022-11-04T01:06:21;56.75;;;26.83;;
45198;SDS011;30941;46.422;18.772;2022-11-04T01:08:47;54.72;;;26.17;;
45198;SDS011;30941;46.422;18.772;2022-11-04T01:11:13;53.08;;;26.15;;
45198;SDS011;30941;46.422;18.772;2022-11-04T01:13:39;50.63;;;24.55;;
45198;SDS011;30941;46.422;18.772;2022-11-04T01:16:07;59.60;;;27.77;;
45198;SDS011;30941;46.422;18.772;2022-11-04T01:18:34;50.78;;;27.38;;
45198;SDS011;30941;46.422;18.772;2022-11-04T01:21:00;64.72;;;28.13;;
45198;SDS011;30941;46.422;18.772;2022-11-04T01:23:26;53.03;;;26.77;;
45198;SDS011;30941;46.422;18.772;2022-11-04T01:25:51;56.90;;;26.17;;
45198;SDS011;30941;46.422;18.772;2022-11-04T01:28:17;52.63;;;25.92;;
45198;SDS011;30941;46.422;18.772;2022-11-04T01:30:42;51.65;;;24.48;;
45198;SDS011;30941;46.422;18.772;2022-11-04T01:33:07;48.03;;;24.63;;
45198;SDS011;30941;46.422;18.772;2022-11-04T01:35:33;43.45;;;23.20;;
45198;SDS011;30941;46.422;18.772;2022-11-04T01:37:58;43.85;;;23.05;;
45198;SDS011;30941;46.422;18.772;2022-11-04T01:40:23;41.13;;;22.13;;
45198;SDS011;30941;46.422;18.772;2022-11-04T01:42:49;49.20;;;23.52;;
45198;SDS011;30941;46.422;18.772;2022-11-04T01:45:15;43.08;;;23.30;;
45198;SDS011;30941;46.422;18.772;2022-11-04T01:48:00;46.72;;;22.38;;
45198;SDS011;30941;46.422;18.772;2022-11-04T01:50:30;51.47;;;25.25;;
45198;SDS011;30941;46.422;18.772;2022-11-04T01:55:28;45.95;;;24.02;;
45198;SDS011;30941;46.422;18.772;2022-11-04T01:57:57;50.53;;;25.50;;
45198;SDS011;30941;46.422;18.772;2022-11-04T02:00:25;47.78;;;24.30;;
45198;SDS011;30941;46.422;18.772;2022-11-04T02:02:56;44.55;;;22.77;;
45198;SDS011;30941;46.422;18.772;2022-11-04T02:05:24;43.90;;;23.85;;
45198;SDS011;30941;46.422;18.772;2022-11-04T02:07:50;49.40;;;23.98;;
45198;SDS011;30941;46.422;18.772;2022-11-04T02:10:19;49.10;;;23.95;;
45198;SDS011;30941;46.422;18.772;2022-11-04T02:12:46;46.67;;;23.77;;
45198;SDS011;30941;46.422;18.772;2022-11-04T02:15:38;48.67;;;24.05;;
45198;SDS011;30941;46.422;18.772;2022-11-04T02:18:15;44.80;;;22.95;;
45198;SDS011;30941;46.422;18.772;2022-11-04T02:20:58;46.60;;;23.48;;
45198;SDS011;30941;46.422;18.772;2022-11-04T02:37:46;69.45;;;28.83;;
45198;SDS011;30941;46.422;18.772;2022-11-04T02:47:58;72.32;;;28.75;;
45198;SDS011;30941;46.422;18.772;2022-11-04T02:50:37;67.38;;;28.10;;
45198;SDS011;30941;46.422;18.772;2022-11-04T02:53:09;59.95;;;27.10;;
45198;SDS011;30941;46.422;18.772;2022-11-04T02:55:39;59.38;;;27.05;;
45198;SDS011;30941;46.422;18.772;2022-11-04T02:58:08;52.45;;;25.25;;
45198;SDS011;30941;46.422;18.772;2022-11-04T03:00:38;63.17;;;27.38;;
45198;SDS011;30941;46.422;18.772;2022-11-04T03:03:08;55.20;;;26.00;;
45198;SDS011;30941;46.422;18.772;2022-11-04T03:05:37;55.65;;;26.58;;
45198;SDS011;30941;46.422;18.772;2022-11-04T03:08:07;53.10;;;25.48;;
45198;SDS011;30941;46.422;18.772;2022-11-04T03:10:40;58.03;;;26.17;;
45198;SDS011;30941;46.422;18.772;2022-11-04T03:13:31;56.25;;;26.05;;
45198;SDS011;30941;46.422;18.772;2022-11-04T03:15:59;57.72;;;25.63;;
45198;SDS011;30941;46.422;18.772;2022-11-04T03:18:32;58.20;;;26.58;;
45198;SDS011;30941;46.422;18.772;2022-11-04T03:21:02;55.35;;;26.00;;
45198;SDS011;30941;46.422;18.772;2022-11-04T03:23:30;65.38;;;28.65;;
45198;SDS011;30941;46.422;18.772;2022-11-04T03:25:57;68.30;;;28.98;;
45198;SDS011;30941;46.422;18.772;2022-11-04T03:31:07;74.45;;;29.90;;
45198;SDS011;30941;46.422;18.772;2022-11-04T03:36:00;79.63;;;32.33;;
45198;SDS011;30941;46.422;18.772;2022-11-04T03:38:27;96.28;;;34.50;;
45198;SDS011;30941;46.422;18.772;2022-11-04T03:40:53;90.55;;;33.88;;
45198;SDS011;30941;46.422;18.772;2022-11-04T03:43:20;91.93;;;33.85;;
45198;SDS011;30941;46.422;18.772;2022-11-04T03:45:49;83.38;;;33.28;;
45198;SDS011;30941;46.422;18.772;2022-11-04T03:48:15;91.18;;;33.03;;
45198;SDS011;30941;46.422;18.772;2022-11-04T03:50:44;88.10;;;35.95;;
45198;SDS011;30941;46.422;18.772;2022-11-04T03:53:15;95.32;;;35.50;;
45198;SDS011;30941;46.422;18.772;2022-11-04T04:04:22;85.53;;;35.72;;
45198;SDS011;30941;46.422;18.772;2022-11-04T04:06:50;85.75;;;34.72;;
45198;SDS011;30941;46.422;18.772;2022-11-04T04:09:21;95.63;;;36.53;;
45198;SDS011;30941;46.422;18.772;2022-11-04T04:11:57;123.95;;;37.20;;
45198;SDS011;30941;46.422;18.772;2022-11-04T04:15:12;96.80;;;33.35;;
45198;SDS011;30941;46.422;18.772;2022-11-04T04:17:33;94.65;;;36.40;;
45198;SDS011;30941;46.422;18.772;2022-11-04T04:20:11;86.50;;;34.28;;
45198;SDS011;30941;46.422;18.772;2022-11-04T04:22:40;90.15;;;34.72;;
45198;SDS011;30941;46.422;18.772;2022-11-04T04:25:09;104.80;;;36.15;;
45198;SDS011;30941;46.422;18.772;2022-11-04T04:27:55;91.72;;;35.15;;
45198;SDS011;30941;46.422;18.772;2022-11-04T04:30:21;106.55;;;37.17;;
45198;SDS011;30941;46.422;18.772;2022-11-04T04:32:48;110.65;;;39.08;;
45198;SDS011;30941;46.422;18.772;2022-11-04T04:35:16;110.82;;;38.08;;
45198;SDS011;30941;46.422;18.772;2022-11-04T04:40:46;117.00;;;38.15;;
45198;SDS011;30941;46.422;18.772;2022-11-04T04:43:34;115.28;;;37.42;;
45198;SDS011;30941;46.422;18.772;2022-11-04T04:46:19;95.15;;;37.58;;
45198;SDS011;30941;46.422;18.772;2022-11-04T04:48:44;92.10;;;36.78;;
45198;SDS011;30941;46.422;18.772;2022-11-04T04:51:10;110.47;;;37.95;;
45198;SDS011;30941;46.422;18.772;2022-11-04T04:53:35;120.35;;;39.67;;
45198;SDS011;30941;46.422;18.772;2022-11-04T04:56:00;121.75;;;40.05;;
45198;SDS011;30941;46.422;18.772;2022-11-04T04:58:26;110.38;;;39.85;;
45198;SDS011;30941;46.422;18.772;2022-11-04T05:00:51;115.15;;;39.05;;
45198;SDS011;30941;46.422;18.772;2022-11-04T05:03:16;119.47;;;40.45;;
45198;SDS011;30941;46.422;18.772;2022-11-04T05:05:42;142.57;;;41.53;;
45198;SDS011;30941;46.422;18.772;2022-11-04T05:08:07;111.53;;;40.67;;
45198;SDS011;30941;46.422;18.772;2022-11-04T05:10:32;113.93;;;42.03;;
45198;SDS011;30941;46.422;18.772;2022-11-04T05:12:59;108.53;;;39.75;;
45198;SDS011;30941;46.422;18.772;2022-11-04T05:15:43;110.72;;;38.22;;
45198;SDS011;30941;46.422;18.772;2022-11-04T05:18:08;101.78;;;40.25;;
45198;SDS011;30941;46.422;18.772;2022-11-04T05:20:34;110.93;;;39.53;;
45198;SDS011;30941;46.422;18.772;2022-11-04T05:23:02;100.22;;;37.83;;
45198;SDS011;30941;46.422;18.772;2022-11-04T05:25:27;104.22;;;38.22;;
45198;SDS011;30941;46.422;18.772;2022-11-04T05:27:52;97.25;;;39.28;;
45198;SDS011;30941;46.422;18.772;2022-11-04T05:30:18;133.15;;;39.88;;
45198;SDS011;30941;46.422;18.772;2022-11-04T05:32:43;120.88;;;40.95;;
45198;SDS011;30941;46.422;18.772;2022-11-04T05:35:09;141.00;;;41.30;;
45198;SDS011;30941;46.422;18.772;2022-11-04T05:37:34;103.82;;;38.38;;
45198;SDS011;30941;46.422;18.772;2022-11-04T05:39:59;124.65;;;42.08;;
45198;SDS011;30941;46.422;18.772;2022-11-04T05:42:25;117.70;;;40.78;;
45198;SDS011;30941;46.422;18.772;2022-11-04T05:44:50;127.53;;;40.58;;
45198;SDS011;30941;46.422;18.772;2022-11-04T05:47:15;120.05;;;40.47;;
45198;SDS011;30941;46.422;18.772;2022-11-04T05:49:41;124.85;;;40.22;;
45198;SDS011;30941;46.422;18.772;2022-11-04T05:52:06;113.45;;;41.58;;
45198;SDS011;30941;46.422;18.772;2022-11-04T05:54:32;120.25;;;40.78;;
45198;SDS011;30941;46.422;18.772;2022-11-04T05:56:57;106.85;;;40.15;;
45198;SDS011;30941;46.422;18.772;2022-11-04T05:59:22;108.10;;;39.08;;
45198;SDS011;30941;46.422;18.772;2022-11-04T06:01:47;104.57;;;36.38;;
45198;SDS011;30941;46.422;18.772;2022-11-04T06:04:14;128.52;;;39.25;;
45198;SDS011;30941;46.422;18.772;2022-11-04T06:06:41;116.07;;;39.60;;
45198;SDS011;30941;46.422;18.772;2022-11-04T06:09:07;123.38;;;38.95;;
45198;SDS011;30941;46.422;18.772;2022-11-04T06:11:32;116.38;;;38.13;;
45198;SDS011;30941;46.422;18.772;2022-11-04T06:13:58;117.47;;;38.85;;
45198;SDS011;30941;46.422;18.772;2022-11-04T06:16:24;135.60;;;38.25;;
45198;SDS011;30941;46.422;18.772;2022-11-04T06:18:50;121.75;;;40.35;;
45198;SDS011;30941;46.422;18.772;2022-11-04T06:23:43;133.13;;;43.72;;
45198;SDS011;30941;46.422;18.772;2022-11-04T06:26:09;136.02;;;42.85;;
45198;SDS011;30941;46.422;18.772;2022-11-04T06:28:36;142.27;;;43.42;;
45198;SDS011;30941;46.422;18.772;2022-11-04T06:31:02;169.43;;;42.40;;
45198;SDS011;30941;46.422;18.772;2022-11-04T06:33:29;150.82;;;44.65;;
45198;SDS011;30941;46.422;18.772;2022-11-04T06:35:58;120.50;;;40.90;;
45198;SDS011;30941;46.422;18.772;2022-11-04T06:38:24;123.40;;;43.13;;
45198;SDS011;30941;46.422;18.772;2022-11-04T06:40:49;132.00;;;43.67;;
45198;SDS011;30941;46.422;18.772;2022-11-04T06:43:15;121.35;;;43.58;;
45198;SDS011;30941;46.422;18.772;2022-11-04T06:45:40;126.07;;;43.17;;
45198;SDS011;30941;46.422;18.772;2022-11-04T06:48:05;124.88;;;43.67;;
45198;SDS011;30941;46.422;18.772;2022-11-04T06:50:31;125.70;;;41.70;;
45198;SDS011;30941;46.422;18.772;2022-11-04T06:52:56;112.97;;;41.55;;
45198;SDS011;30941;46.422;18.772;2022-11-04T06:55:22;104.30;;;39.70;;
45198;SDS011;30941;46.422;18.772;2022-11-04T06:57:47;115.60;;;40.50;;
45198;SDS011;30941;46.422;18.772;2022-11-04T07:00:13;118.35;;;41.80;;
45198;SDS011;30941;46.422;18.772;2022-11-04T07:02:38;99.18;;;39.42;;
45198;SDS011;30941;46.422;18.772;2022-11-04T07:05:04;102.00;;;40.38;;
45198;SDS011;30941;46.422;18.772;2022-11-04T07:07:29;106.32;;;37.92;;
45198;SDS011;30941;46.422;18.772;2022-11-04T07:09:55;103.13;;;41.00;;
45198;SDS011;30941;46.422;18.772;2022-11-04T07:12:21;103.03;;;38.97;;
45198;SDS011;30941;46.422;18.772;2022-11-04T07:14:47;107.38;;;40.15;;
45198;SDS011;30941;46.422;18.772;2022-11-04T07:17:13;105.68;;;41.17;;
45198;SDS011;30941;46.422;18.772;2022-11-04T07:19:38;97.78;;;38.50;;
45198;SDS011;30941;46.422;18.772;2022-11-04T07:22:04;101.10;;;39.33;;
45198;SDS011;30941;46.422;18.772;2022-11-04T07:24:29;88.57;;;39.47;;
45198;SDS011;30941;46.422;18.772;2022-11-04T07:26:54;79.45;;;34.50;;
45198;SDS011;30941;46.422;18.772;2022-11-04T07:29:20;80.38;;;34.58;;
45198;SDS011;30941;46.422;18.772;2022-11-04T07:31:45;75.45;;;34.97;;
45198;SDS011;30941;46.422;18.772;2022-11-04T07:34:11;73.75;;;31.48;;
45198;SDS011;30941;46.422;18.772;2022-11-04T07:36:36;80.60;;;34.38;;
45198;SDS011;30941;46.422;18.772;2022-11-04T07:39:02;67.57;;;34.25;;
45198;SDS011;30941;46.422;18.772;2022-11-04T07:41:27;66.60;;;32.85;;
45198;SDS011;30941;46.422;18.772;2022-11-04T07:43:53;65.43;;;31.33;;
45198;SDS011;30941;46.422;18.772;2022-11-04T07:46:19;78.57;;;36.70;;
45198;SDS011;30941;46.422;18.772;2022-11-04T07:48:44;71.63;;;34.10;;
45198;SDS011;30941;46.422;18.772;2022-11-04T07:51:11;72.35;;;35.78;;
45198;SDS011;30941;46.422;18.772;2022-11-04T07:53:37;70.22;;;34.45;;
45198;SDS011;30941;46.422;18.772;2022-11-04T07:56:04;73.97;;;35.03;;
45198;SDS011;30941;46.422;18.772;2022-11-04T07:58:30;80.13;;;35.28;;
45198;SDS011;30941;46.422;18.772;2022-11-04T08:00:57;77.18;;;35.08;;
45198;SDS011;30941;46.422;18.772;2022-11-04T08:03:23;85.38;;;36.17;;
45198;SDS011;30941;46.422;18.772;2022-11-04T08:05:53;90.82;;;39.60;;
45198;SDS011;30941;46.422;18.772;2022-11-04T08:08:22;88.30;;;38.92;;
45198;SDS011;30941;46.422;18.772;2022-11-04T08:10:51;87.38;;;39.08;;
45198;SDS011;30941;46.422;18.772;2022-11-04T08:15:46;86.97;;;38.22;;
45198;SDS011;30941;46.422;18.772;2022-11-04T08:18:11;89.22;;;39.20;;
45198;SDS011;30941;46.422;18.772;2022-11-04T08:20:37;95.25;;;38.72;;
45198;SDS011;30941;46.422;18.772;2022-11-04T08:23:02;82.32;;;39.28;;
45198;SDS011;30941;46.422;18.772;2022-11-04T08:25:28;84.93;;;36.97;;
45198;SDS011;30941;46.422;18.772;2022-11-04T08:27:53;93.35;;;39.22;;
45198;SDS011;30941;46.422;18.772;2022-11-04T08:30:18;94.72;;;39.17;;
45198;SDS011;30941;46.422;18.772;2022-11-04T08:32:44;92.53;;;39.25;;
45198;SDS011;30941;46.422;18.772;2022-11-04T08:35:09;83.93;;;37.83;;
45198;SDS011;30941;46.422;18.772;2022-11-04T08:37:35;81.47;;;40.97;;
45198;SDS011;30941;46.422;18.772;2022-11-04T08:40:02;82.38;;;38.53;;
45198;SDS011;30941;46.422;18.772;2022-11-04T08:42:28;77.03;;;37.22;;
45198;SDS011;30941;46.422;18.772;2022-11-04T08:44:53;76.60;;;38.58;;
45198;SDS011;30941;46.422;18.772;2022-11-04T08:47:19;72.43;;;35.45;;
45198;SDS011;30941;46.422;18.772;2022-11-04T08:49:44;66.72;;;33.58;;
45198;SDS011;30941;46.422;18.772;2022-11-04T08:52:10;75.40;;;36.83;;
45198;SDS011;30941;46.422;18.772;2022-11-04T08:54:35;73.93;;;35.78;;
45198;SDS011;30941;46.422;18.772;2022-11-04T08:57:00;64.50;;;33.35;;
45198;SDS011;30941;46.422;18.772;2022-11-04T08:59:26;70.60;;;35.95;;
45198;SDS011;30941;46.422;18.772;2022-11-04T09:01:51;71.32;;;37.75;;
45198;SDS011;30941;46.422;18.772;2022-11-04T09:04:17;74.70;;;36.25;;
45198;SDS011;30941;46.422;18.772;2022-11-04T09:06:43;77.63;;;37.60;;
45198;SDS011;30941;46.422;18.772;2022-11-04T09:09:11;67.93;;;36.40;;
45198;SDS011;30941;46.422;18.772;2022-11-04T09:11:39;73.95;;;37.00;;
45198;SDS011;30941;46.422;18.772;2022-11-04T09:14:05;71.20;;;34.55;;
45198;SDS011;30941;46.422;18.772;2022-11-04T09:16:31;72.60;;;36.58;;
45198;SDS011;30941;46.422;18.772;2022-11-04T09:18:58;66.80;;;33.00;;
45198;SDS011;30941;46.422;18.772;2022-11-04T09:21:24;69.78;;;34.42;;
45198;SDS011;30941;46.422;18.772;2022-11-04T09:23:50;64.95;;;33.50;;
45198;SDS011;30941;46.422;18.772;2022-11-04T09:26:16;65.22;;;34.97;;
45198;SDS011;30941;46.422;18.772;2022-11-04T09:28:42;63.40;;;32.83;;
45198;SDS011;30941;46.422;18.772;2022-11-04T09:31:09;62.30;;;34.05;;
45198;SDS011;30941;46.422;18.772;2022-11-04T09:33:36;59.22;;;31.05;;
45198;SDS011;30941;46.422;18.772;2022-11-04T09:36:01;57.20;;;31.48;;
45198;SDS011;30941;46.422;18.772;2022-11-04T09:38:27;60.22;;;34.35;;
45198;SDS011;30941;46.422;18.772;2022-11-04T09:40:52;60.83;;;31.63;;
45198;SDS011;30941;46.422;18.772;2022-11-04T09:46:15;50.17;;;29.00;;
45198;SDS011;30941;46.422;18.772;2022-11-04T09:48:43;52.53;;;27.95;;
45198;SDS011;30941;46.422;18.772;2022-11-04T09:51:09;50.75;;;27.75;;
45198;SDS011;30941;46.422;18.772;2022-11-04T09:58:49;52.78;;;28.75;;
45198;SDS011;30941;46.422;18.772;2022-11-04T10:01:20;52.30;;;29.42;;
45198;SDS011;30941;46.422;18.772;2022-11-04T10:07:25;51.53;;;28.20;;
45198;SDS011;30941;46.422;18.772;2022-11-04T10:18:13;55.72;;;29.00;;
45198;SDS011;30941;46.422;18.772;2022-11-04T10:20:48;61.42;;;28.13;;
45198;SDS011;30941;46.422;18.772;2022-11-04T10:26:32;48.15;;;27.45;;
45198;SDS011;30941;46.422;18.772;2022-11-04T10:29:04;51.08;;;28.38;;
45198;SDS011;30941;46.422;18.772;2022-11-04T10:31:32;44.78;;;25.98;;
45198;SDS011;30941;46.422;18.772;2022-11-04T10:34:05;47.47;;;25.65;;
45198;SDS011;30941;46.422;18.772;2022-11-04T10:36:33;45.70;;;25.17;;
45198;SDS011;30941;46.422;18.772;2022-11-04T10:39:01;47.67;;;25.88;;
45198;SDS011;30941;46.422;18.772;2022-11-04T10:41:35;47.58;;;28.48;;
45198;SDS011;30941;46.422;18.772;2022-11-04T10:44:03;48.50;;;27.00;;
45198;SDS011;30941;46.422;18.772;2022-11-04T10:52:08;51.25;;;28.80;;
45198;SDS011;30941;46.422;18.772;2022-11-04T10:54:44;56.72;;;30.80;;
45198;SDS011;30941;46.422;18.772;2022-11-04T10:57:13;50.83;;;29.92;;
45198;SDS011;30941;46.422;18.772;2022-11-04T10:59:54;53.58;;;30.02;;
45198;SDS011;30941;46.422;18.772;2022-11-04T11:07:41;51.08;;;28.98;;
45198;SDS011;30941;46.422;18.772;2022-11-04T11:10:15;52.33;;;31.10;;
45198;SDS011;30941;46.422;18.772;2022-11-04T11:13:06;52.55;;;29.15;;
45198;SDS011;30941;46.422;18.772;2022-11-04T11:15:47;48.33;;;30.30;;
45198;SDS011;30941;46.422;18.772;2022-11-04T11:20:40;55.58;;;29.98;;
45198;SDS011;30941;46.422;18.772;2022-11-04T11:25:59;52.70;;;30.88;;
45198;SDS011;30941;46.422;18.772;2022-11-04T11:28:25;58.08;;;33.25;;
45198;SDS011;30941;46.422;18.772;2022-11-04T11:33:25;51.50;;;29.45;;
45198;SDS011;30941;46.422;18.772;2022-11-04T11:39:02;55.72;;;31.23;;
45198;SDS011;30941;46.422;18.772;2022-11-04T11:41:27;63.53;;;29.95;;
45198;SDS011;30941;46.422;18.772;2022-11-04T11:43:55;54.10;;;30.27;;
45198;SDS011;30941;46.422;18.772;2022-11-04T11:46:24;60.55;;;31.88;;
45198;SDS011;30941;46.422;18.772;2022-11-04T11:48:51;54.60;;;31.30;;
45198;SDS011;30941;46.422;18.772;2022-11-04T11:51:26;56.17;;;31.98;;
45198;SDS011;30941;46.422;18.772;2022-11-04T11:54:06;52.58;;;31.05;;
45198;SDS011;30941;46.422;18.772;2022-11-04T11:56:58;61.85;;;32.72;;
45198;SDS011;30941;46.422;18.772;2022-11-04T12:01:56;52.22;;;29.40;;
45198;SDS011;30941;46.422;18.772;2022-11-04T12:04:32;57.08;;;32.70;;
45198;SDS011;30941;46.422;18.772;2022-11-04T12:07:07;55.05;;;31.92;;
45198;SDS011;30941;46.422;18.772;2022-11-04T12:09:45;54.17;;;29.88;;
45198;SDS011;30941;46.422;18.772;2022-11-04T12:17:42;54.25;;;31.65;;
45198;SDS011;30941;46.422;18.772;2022-11-04T12:28:58;61.50;;;32.58;;
45198;SDS011;30941;46.422;18.772;2022-11-04T12:31:58;55.78;;;32.17;;
45198;SDS011;30941;46.422;18.772;2022-11-04T12:38:11;55.53;;;31.95;;
45198;SDS011;30941;46.422;18.772;2022-11-04T12:40:27;54.75;;;32.38;;
45198;SDS011;30941;46.422;18.772;2022-11-04T12:45:58;57.38;;;31.25;;
45198;SDS011;30941;46.422;18.772;2022-11-04T12:51:41;48.85;;;30.20;;
45198;SDS011;30941;46.422;18.772;2022-11-04T12:56:36;55.92;;;32.92;;
45198;SDS011;30941;46.422;18.772;2022-11-04T13:02:15;64.97;;;33.60;;
45198;SDS011;30941;46.422;18.772;2022-11-04T13:07:29;58.35;;;34.00;;
45198;SDS011;30941;46.422;18.772;2022-11-04T13:09:58;60.28;;;33.92;;
45198;SDS011;30941;46.422;18.772;2022-11-04T13:12:29;58.83;;;32.72;;
45198;SDS011;30941;46.422;18.772;2022-11-04T13:15:02;63.75;;;34.53;;
45198;SDS011;30941;46.422;18.772;2022-11-04T13:17:32;59.05;;;32.42;;
45198;SDS011;30941;46.422;18.772;2022-11-04T13:20:12;58.95;;;33.60;;
45198;SDS011;30941;46.422;18.772;2022-11-04T13:22:43;58.70;;;32.95;;
45198;SDS011;30941;46.422;18.772;2022-11-04T13:25:25;61.65;;;34.92;;
45198;SDS011;30941;46.422;18.772;2022-11-04T13:27:58;56.55;;;33.45;;
45198;SDS011;30941;46.422;18.772;2022-11-04T13:33:07;59.30;;;34.10;;
45198;SDS011;30941;46.422;18.772;2022-11-04T13:43:45;61.03;;;34.55;;
45198;SDS011;30941;46.422;18.772;2022-11-04T13:46:18;61.85;;;37.83;;
45198;SDS011;30941;46.422;18.772;2022-11-04T13:51:37;60.83;;;34.40;;
45198;SDS011;30941;46.422;18.772;2022-11-04T13:54:04;64.45;;;35.70;;
45198;SDS011;30941;46.422;18.772;2022-11-04T13:56:35;69.85;;;37.72;;
45198;SDS011;30941;46.422;18.772;2022-11-04T13:59:18;62.22;;;34.60;;
45198;SDS011;30941;46.422;18.772;2022-11-04T14:01:46;59.97;;;34.40;;
45198;SDS011;30941;46.422;18.772;2022-11-04T14:14:38;68.03;;;35.45;;
45198;SDS011;30941;46.422;18.772;2022-11-04T14:17:04;61.30;;;34.67;;
45198;SDS011;30941;46.422;18.772;2022-11-04T14:22:27;67.88;;;35.40;;
45198;SDS011;30941;46.422;18.772;2022-11-04T14:25:30;60.50;;;33.92;;
45198;SDS011;30941;46.422;18.772;2022-11-04T14:33:30;65.80;;;35.17;;
45198;SDS011;30941;46.422;18.772;2022-11-04T14:36:14;61.45;;;34.85;;
45198;SDS011;30941;46.422;18.772;2022-11-04T14:38:41;66.45;;;36.28;;
45198;SDS011;30941;46.422;18.772;2022-11-04T14:41:12;69.72;;;38.13;;
45198;SDS011;30941;46.422;18.772;2022-11-04T14:43:43;69.40;;;36.65;;
45198;SDS011;30941;46.422;18.772;2022-11-04T14:46:10;74.22;;;36.40;;
45198;SDS011;30941;46.422;18.772;2022-11-04T14:48:39;73.43;;;38.47;;
45198;SDS011;30941;46.422;18.772;2022-11-04T14:51:16;59.78;;;36.25;;
45198;SDS011;30941;46.422;18.772;2022-11-04T14:53:47;63.30;;;35.08;;
45198;SDS011;30941;46.422;18.772;2022-11-04T14:56:13;64.70;;;34.30;;
45198;SDS011;30941;46.422;18.772;2022-11-04T15:01:40;70.97;;;37.33;;
45198;SDS011;30941;46.422;18.772;2022-11-04T15:04:11;62.42;;;35.45;;
45198;SDS011;30941;46.422;18.772;2022-11-04T15:06:42;62.80;;;36.58;;
45198;SDS011;30941;46.422;18.772;2022-11-04T15:09:18;64.55;;;36.10;;
45198;SDS011;30941;46.422;18.772;2022-11-04T15:11:45;66.55;;;37.40;;
45198;SDS011;30941;46.422;18.772;2022-11-04T15:14:29;63.97;;;37.25;;
45198;SDS011;30941;46.422;18.772;2022-11-04T15:16:55;65.65;;;39.92;;
45198;SDS011;30941;46.422;18.772;2022-11-04T15:19:28;65.95;;;39.10;;
45198;SDS011;30941;46.422;18.772;2022-11-04T15:21:55;69.60;;;41.03;;
45198;SDS011;30941;46.422;18.772;2022-11-04T15:24:22;65.35;;;37.55;;
45198;SDS011;30941;46.422;18.772;2022-11-04T15:26:48;72.95;;;40.65;;
45198;SDS011;30941;46.422;18.772;2022-11-04T15:29:15;75.80;;;43.45;;
45198;SDS011;30941;46.422;18.772;2022-11-04T15:31:56;85.05;;;44.90;;
45198;SDS011;30941;46.422;18.772;2022-11-04T15:34:26;77.53;;;45.03;;
45198;SDS011;30941;46.422;18.772;2022-11-04T15:36:53;74.80;;;41.30;;
45198;SDS011;30941;46.422;18.772;2022-11-04T15:39:22;77.25;;;42.38;;
45198;SDS011;30941;46.422;18.772;2022-11-04T15:41:51;69.97;;;42.90;;
45198;SDS011;30941;46.422;18.772;2022-11-04T15:44:46;73.45;;;40.47;;
45198;SDS011;30941;46.422;18.772;2022-11-04T15:49:41;71.32;;;40.63;;
45198;SDS011;30941;46.422;18.772;2022-11-04T15:52:07;69.38;;;39.60;;
45198;SDS011;30941;46.422;18.772;2022-11-04T15:54:40;74.30;;;40.30;;
45198;SDS011;30941;46.422;18.772;2022-11-04T15:57:49;75.50;;;41.25;;
45198;SDS011;30941;46.422;18.772;2022-11-04T15:59:57;71.57;;;40.30;;
45198;SDS011;30941;46.422;18.772;2022-11-04T16:02:30;67.63;;;39.15;;
45198;SDS011;30941;46.422;18.772;2022-11-04T16:07:35;76.82;;;41.00;;
45198;SDS011;30941;46.422;18.772;2022-11-04T16:23:29;83.50;;;46.58;;
45198;SDS011;30941;46.422;18.772;2022-11-04T16:25:59;80.47;;;42.13;;
45198;SDS011;30941;46.422;18.772;2022-11-04T16:28:29;84.53;;;41.67;;
45198;SDS011;30941;46.422;18.772;2022-11-04T16:30:58;74.97;;;42.13;;
45198;SDS011;30941;46.422;18.772;2022-11-04T16:33:24;76.25;;;42.60;;
45198;SDS011;30941;46.422;18.772;2022-11-04T16:35:50;75.55;;;41.80;;
45198;SDS011;30941;46.422;18.772;2022-11-04T16:38:15;74.10;;;39.00;;
45198;SDS011;30941;46.422;18.772;2022-11-04T16:40:41;76.78;;;38.95;;
45198;SDS011;30941;46.422;18.772;2022-11-04T16:43:08;86.80;;;48.95;;
45198;SDS011;30941;46.422;18.772;2022-11-04T16:45:34;67.93;;;38.42;;
45198;SDS011;30941;46.422;18.772;2022-11-04T16:48:00;59.95;;;31.40;;
45198;SDS011;30941;46.422;18.772;2022-11-04T16:50:26;60.08;;;32.60;;
45198;SDS011;30941;46.422;18.772;2022-11-04T16:52:52;59.00;;;34.03;;
45198;SDS011;30941;46.422;18.772;2022-11-04T16:55:18;62.70;;;35.28;;
45198;SDS011;30941;46.422;18.772;2022-11-04T16:57:44;67.68;;;35.88;;
45198;SDS011;30941;46.422;18.772;2022-11-04T17:00:20;69.07;;;37.70;;
45198;SDS011;30941;46.422;18.772;2022-11-04T17:02:47;66.60;;;38.20;;
45198;SDS011;30941;46.422;18.772;2022-11-04T17:05:14;62.72;;;36.35;;
45198;SDS011;30941;46.422;18.772;2022-11-04T17:07:40;64.88;;;37.50;;
45198;SDS011;30941;46.422;18.772;2022-11-04T17:12:44;67.72;;;37.47;;
45198;SDS011;30941;46.422;18.772;2022-11-04T17:15:10;64.32;;;36.35;;
45198;SDS011;30941;46.422;18.772;2022-11-04T17:17:36;67.05;;;37.28;;
45198;SDS011;30941;46.422;18.772;2022-11-04T17:20:01;62.63;;;33.53;;